sensor_id;sensor_type;location;lat;lon;timestamp;pressure;altitude;pressure_sealevel;temperature;humidity
18697;BME280;22617;43.690;27.956;2023-06-14T00:02:08;98501.44;;;17.69;76.86
18697;BME280;22617;43.690;27.956;2023-06-14T00:07:12;98496.41;;;17.63;76.76
18697;BME280;22617;43.690;27.956;2023-06-14T00:12:20;98500.00;;;17.60;76.69
18697;BME280;22617;43.690;27.956;2023-06-14T00:17:23;98495.28;;;17.47;77.30
18697;BME280;22617;43.690;27.956;2023-06-14T00:22:32;98489.69;;;17.32;77.81
18697;BME280;22617;43.690;27.956;2023-06-14T00:27:37;98489.31;;;17.20;78.16
18697;BME280;22617;43.690;27.956;2023-06-14T00:32:41;98492.41;;;17.08;78.56
18697;BME280;22617;43.690;27.956;2023-06-14T00:37:45;98485.22;;;16.89;79.09
18697;BME280;22617;43.690;27.956;2023-06-14T00:42:50;98486.25;;;16.85;79.49
18697;BME280;22617;43.690;27.956;2023-06-14T00:47:54;98491.81;;;16.78;79.76
18697;BME280;22617;43.690;27.956;2023-06-14T00:52:59;98482.31;;;16.74;80.17
18697;BME280;22617;43.690;27.956;2023-06-14T00:58:04;98486.91;;;16.69;80.35
18697;BME280;22617;43.690;27.956;2023-06-14T01:03:09;98487.91;;;16.65;80.54
18697;BME280;22617;43.690;27.956;2023-06-14T01:08:23;98481.56;;;16.45;80.66
18697;BME280;22617;43.690;27.956;2023-06-14T01:13:33;98481.56;;;16.45;81.19
18697;BME280;22617;43.690;27.956;2023-06-14T01:18:37;98485.97;;;16.45;81.04
18697;BME280;22617;43.690;27.956;2023-06-14T01:23:42;98485.97;;;16.45;80.96
18697;BME280;22617;43.690;27.956;2023-06-14T01:28:47;98479.16;;;16.39;81.37
18697;BME280;22617;43.690;27.956;2023-06-14T01:33:52;98489.16;;;16.30;81.40
18697;BME280;22617;43.690;27.956;2023-06-14T01:39:00;98487.59;;;16.24;81.66
18697;BME280;22617;43.690;27.956;2023-06-14T01:44:04;98489.63;;;16.16;81.70
18697;BME280;22617;43.690;27.956;2023-06-14T01:49:08;98481.59;;;16.21;81.50
18697;BME280;22617;43.690;27.956;2023-06-14T01:54:13;98494.91;;;16.16;81.54
18697;BME280;22617;43.690;27.956;2023-06-14T01:59:17;98491.31;;;16.17;81.60
18697;BME280;22617;43.690;27.956;2023-06-14T02:04:21;98490.69;;;16.10;81.35
18697;BME280;22617;43.690;27.956;2023-06-14T02:09:27;98488.88;;;16.12;80.94
18697;BME280;22617;43.690;27.956;2023-06-14T02:14:31;98486.06;;;16.17;80.29
18697;BME280;22617;43.690;27.956;2023-06-14T02:19:36;98479.38;;;16.08;80.82
18697;BME280;22617;43.690;27.956;2023-06-14T02:24:41;98496.47;;;15.95;81.13
18697;BME280;22617;43.690;27.956;2023-06-14T02:29:45;98490.97;;;15.77;82.22
18697;BME280;22617;43.690;27.956;2023-06-14T02:34:48;98506.53;;;15.83;82.02
18697;BME280;22617;43.690;27.956;2023-06-14T02:39:54;98510.81;;;15.59;82.62
18697;BME280;22617;43.690;27.956;2023-06-14T02:44:58;98513.84;;;15.45;83.46
18697;BME280;22617;43.690;27.956;2023-06-14T02:50:07;98508.44;;;15.50;83.48
18697;BME280;22617;43.690;27.956;2023-06-14T02:55:12;98507.28;;;15.60;83.23
18697;BME280;22617;43.690;27.956;2023-06-14T03:00:17;98506.34;;;15.62;83.28
18697;BME280;22617;43.690;27.956;2023-06-14T03:05:23;98512.22;;;15.69;83.38
18697;BME280;22617;43.690;27.956;2023-06-14T03:10:29;98519.88;;;15.77;83.26
18697;BME280;22617;43.690;27.956;2023-06-14T03:15:34;98527.84;;;15.74;83.21
18697;BME280;22617;43.690;27.956;2023-06-14T03:20:38;98529.97;;;15.89;83.09
18697;BME280;22617;43.690;27.956;2023-06-14T03:25:44;98523.72;;;15.93;83.02
18697;BME280;22617;43.690;27.956;2023-06-14T03:30:48;98534.34;;;15.90;83.17
18697;BME280;22617;43.690;27.956;2023-06-14T03:35:53;98532.78;;;15.83;83.67
18697;BME280;22617;43.690;27.956;2023-06-14T03:41:00;98538.69;;;15.91;83.98
18697;BME280;22617;43.690;27.956;2023-06-14T03:46:04;98528.78;;;15.99;83.92
18697;BME280;22617;43.690;27.956;2023-06-14T03:51:09;98535.56;;;16.31;82.40
18697;BME280;22617;43.690;27.956;2023-06-14T03:56:16;98538.69;;;16.42;82.40
18697;BME280;22617;43.690;27.956;2023-06-14T04:01:20;98539.81;;;16.35;82.23
18697;BME280;22617;43.690;27.956;2023-06-14T04:06:27;98539.22;;;16.51;82.62
18697;BME280;22617;43.690;27.956;2023-06-14T04:11:36;98533.97;;;16.76;81.29
18697;BME280;22617;43.690;27.956;2023-06-14T04:16:40;98543.06;;;16.68;81.73
18697;BME280;22617;43.690;27.956;2023-06-14T04:21:44;98544.81;;;16.92;80.85
18697;BME280;22617;43.690;27.956;2023-06-14T04:26:51;98544.34;;;17.04;81.03
18697;BME280;22617;43.690;27.956;2023-06-14T04:31:56;98549.59;;;17.04;81.47
18697;BME280;22617;43.690;27.956;2023-06-14T04:37:02;98556.97;;;17.18;81.16
18697;BME280;22617;43.690;27.956;2023-06-14T04:42:11;98556.69;;;17.49;80.31
18697;BME280;22617;43.690;27.956;2023-06-14T04:47:16;98565.84;;;17.62;80.16
18697;BME280;22617;43.690;27.956;2023-06-14T04:52:20;98566.31;;;17.73;80.25
18697;BME280;22617;43.690;27.956;2023-06-14T04:57:26;98564.75;;;17.89;80.47
18697;BME280;22617;43.690;27.956;2023-06-14T05:02:33;98581.97;;;18.19;80.06
18697;BME280;22617;43.690;27.956;2023-06-14T05:07:39;98576.09;;;18.33;79.08
18697;BME280;22617;43.690;27.956;2023-06-14T05:12:45;98584.94;;;18.54;78.80
18697;BME280;22617;43.690;27.956;2023-06-14T05:17:53;98592.41;;;18.64;78.64
18697;BME280;22617;43.690;27.956;2023-06-14T05:22:57;98597.69;;;18.85;78.34
18697;BME280;22617;43.690;27.956;2023-06-14T05:28:03;98585.00;;;18.93;78.21
18697;BME280;22617;43.690;27.956;2023-06-14T05:33:07;98598.03;;;19.16;78.36
18697;BME280;22617;43.690;27.956;2023-06-14T05:38:11;98597.88;;;19.38;77.98
18697;BME280;22617;43.690;27.956;2023-06-14T05:43:16;98614.66;;;19.57;77.86
18697;BME280;22617;43.690;27.956;2023-06-14T05:48:20;98607.16;;;19.85;77.94
18697;BME280;22617;43.690;27.956;2023-06-14T05:53:24;98612.66;;;19.99;76.22
18697;BME280;22617;43.690;27.956;2023-06-14T05:58:29;98611.25;;;20.10;76.52
18697;BME280;22617;43.690;27.956;2023-06-14T06:03:33;98616.59;;;20.27;75.69
18697;BME280;22617;43.690;27.956;2023-06-14T06:08:37;98621.06;;;20.43;75.49
18697;BME280;22617;43.690;27.956;2023-06-14T06:13:42;98620.81;;;20.31;75.02
18697;BME280;22617;43.690;27.956;2023-06-14T06:18:46;98627.38;;;20.58;74.43
18697;BME280;22617;43.690;27.956;2023-06-14T06:23:49;98616.16;;;21.05;74.17
18697;BME280;22617;43.690;27.956;2023-06-14T06:28:54;98625.47;;;21.12;73.64
18697;BME280;22617;43.690;27.956;2023-06-14T06:33:59;98624.72;;;21.10;72.91
18697;BME280;22617;43.690;27.956;2023-06-14T06:39:03;98627.84;;;20.83;73.38
18697;BME280;22617;43.690;27.956;2023-06-14T06:44:13;98635.81;;;20.83;73.86
18697;BME280;22617;43.690;27.956;2023-06-14T06:49:23;98620.88;;;21.33;73.23
18697;BME280;22617;43.690;27.956;2023-06-14T06:54:27;98626.66;;;21.06;73.02
18697;BME280;22617;43.690;27.956;2023-06-14T06:59:32;98626.75;;;20.87;73.76
18697;BME280;22617;43.690;27.956;2023-06-14T07:04:36;98631.44;;;20.82;73.80
18697;BME280;22617;43.690;27.956;2023-06-14T07:09:40;98626.59;;;21.89;72.91
18697;BME280;22617;43.690;27.956;2023-06-14T07:14:46;98634.53;;;22.36;70.39
18697;BME280;22617;43.690;27.956;2023-06-14T07:19:51;98636.50;;;22.78;68.93
18697;BME280;22617;43.690;27.956;2023-06-14T07:24:55;98630.22;;;23.23;68.91
18697;BME280;22617;43.690;27.956;2023-06-14T07:30:01;98638.66;;;22.87;67.61
18697;BME280;22617;43.690;27.956;2023-06-14T07:35:06;98635.69;;;22.78;67.78
18697;BME280;22617;43.690;27.956;2023-06-14T07:40:12;98640.28;;;22.29;68.28
18697;BME280;22617;43.690;27.956;2023-06-14T07:45:18;98641.28;;;22.42;69.52
18697;BME280;22617;43.690;27.956;2023-06-14T07:50:23;98637.50;;;22.91;67.84
18697;BME280;22617;43.690;27.956;2023-06-14T07:55:28;98633.75;;;23.38;65.91
18697;BME280;22617;43.690;27.956;2023-06-14T08:00:49;98642.75;;;24.06;65.78
18697;BME280;22617;43.690;27.956;2023-06-14T08:05:53;98643.16;;;23.43;64.81
18697;BME280;22617;43.690;27.956;2023-06-14T08:10:58;98640.88;;;23.37;64.44
18697;BME280;22617;43.690;27.956;2023-06-14T08:16:04;98644.72;;;23.62;65.19
18697;BME280;22617;43.690;27.956;2023-06-14T08:21:09;98650.13;;;24.29;65.25
18697;BME280;22617;43.690;27.956;2023-06-14T08:26:14;98639.56;;;24.94;62.33
18697;BME280;22617;43.690;27.956;2023-06-14T08:31:20;98645.06;;;25.31;61.90
18697;BME280;22617;43.690;27.956;2023-06-14T08:36:24;98640.00;;;25.01;61.05
18697;BME280;22617;43.690;27.956;2023-06-14T08:41:28;98655.94;;;24.08;61.38
18697;BME280;22617;43.690;27.956;2023-06-14T08:46:34;98635.41;;;24.90;61.81
18697;BME280;22617;43.690;27.956;2023-06-14T08:51:39;98640.25;;;25.36;60.17
18697;BME280;22617;43.690;27.956;2023-06-14T08:56:44;98643.63;;;25.76;58.00
18697;BME280;22617;43.690;27.956;2023-06-14T09:01:49;98639.13;;;26.73;57.46
18697;BME280;22617;43.690;27.956;2023-06-14T09:07:13;98634.03;;;25.48;58.67
18697;BME280;22617;43.690;27.956;2023-06-14T09:12:17;98643.13;;;25.20;59.91
18697;BME280;22617;43.690;27.956;2023-06-14T09:17:28;98640.13;;;25.12;61.78
18697;BME280;22617;43.690;27.956;2023-06-14T09:22:33;98624.44;;;25.71;59.92
18697;BME280;22617;43.690;27.956;2023-06-14T09:27:37;98625.88;;;24.86;60.34
18697;BME280;22617;43.690;27.956;2023-06-14T09:32:43;98617.25;;;24.83;59.38
18697;BME280;22617;43.690;27.956;2023-06-14T09:37:47;98616.69;;;24.77;60.22
18697;BME280;22617;43.690;27.956;2023-06-14T09:42:52;98627.75;;;24.59;60.96
18697;BME280;22617;43.690;27.956;2023-06-14T09:47:58;98622.09;;;25.41;61.14
18697;BME280;22617;43.690;27.956;2023-06-14T09:53:11;98616.31;;;25.85;57.93
18697;BME280;22617;43.690;27.956;2023-06-14T09:58:16;98611.50;;;26.14;57.99
18697;BME280;22617;43.690;27.956;2023-06-14T10:03:25;98609.69;;;26.97;56.19
18697;BME280;22617;43.690;27.956;2023-06-14T10:08:52;98616.84;;;27.64;54.94
18697;BME280;22617;43.690;27.956;2023-06-14T10:13:59;98624.03;;;26.37;55.68
18697;BME280;22617;43.690;27.956;2023-06-14T10:19:11;98622.59;;;25.71;57.92
18697;BME280;22617;43.690;27.956;2023-06-14T10:24:18;98620.28;;;25.16;58.20
18697;BME280;22617;43.690;27.956;2023-06-14T10:29:24;98625.91;;;24.99;59.79
18697;BME280;22617;43.690;27.956;2023-06-14T10:34:31;98624.88;;;25.01;59.19
18697;BME280;22617;43.690;27.956;2023-06-14T10:39:38;98626.13;;;25.08;60.56
18697;BME280;22617;43.690;27.956;2023-06-14T10:44:45;98631.59;;;25.07;61.13
18697;BME280;22617;43.690;27.956;2023-06-14T10:49:53;98628.34;;;24.89;60.42
18697;BME280;22617;43.690;27.956;2023-06-14T10:55:08;98638.06;;;24.90;59.57
18697;BME280;22617;43.690;27.956;2023-06-14T11:00:21;98631.38;;;24.58;59.92
18697;BME280;22617;43.690;27.956;2023-06-14T11:05:41;98628.16;;;24.65;59.12
18697;BME280;22617;43.690;27.956;2023-06-14T11:10:47;98625.84;;;25.51;58.17
18697;BME280;22617;43.690;27.956;2023-06-14T11:15:51;98625.28;;;25.71;57.46
18697;BME280;22617;43.690;27.956;2023-06-14T11:21:00;98630.63;;;25.46;57.50
18697;BME280;22617;43.690;27.956;2023-06-14T11:26:05;98631.69;;;25.43;57.37
18697;BME280;22617;43.690;27.956;2023-06-14T11:31:10;98632.53;;;24.93;57.82
18697;BME280;22617;43.690;27.956;2023-06-14T11:36:16;98629.78;;;25.45;57.18
18697;BME280;22617;43.690;27.956;2023-06-14T11:41:24;98625.84;;;25.64;57.28
18697;BME280;22617;43.690;27.956;2023-06-14T11:46:29;98637.81;;;25.58;57.00
18697;BME280;22617;43.690;27.956;2023-06-14T11:51:35;98630.75;;;25.57;56.68
18697;BME280;22617;43.690;27.956;2023-06-14T11:56:41;98625.75;;;26.01;56.09
18697;BME280;22617;43.690;27.956;2023-06-14T12:01:47;98627.50;;;26.26;56.34
18697;BME280;22617;43.690;27.956;2023-06-14T12:06:54;98626.06;;;26.57;57.09
18697;BME280;22617;43.690;27.956;2023-06-14T12:12:00;98610.97;;;27.93;54.46
18697;BME280;22617;43.690;27.956;2023-06-14T12:17:07;98611.22;;;28.12;54.43
18697;BME280;22617;43.690;27.956;2023-06-14T12:22:13;98611.47;;;27.42;52.91
18697;BME280;22617;43.690;27.956;2023-06-14T12:27:21;98609.38;;;26.77;55.27
18697;BME280;22617;43.690;27.956;2023-06-14T12:32:28;98599.38;;;26.21;55.69
18697;BME280;22617;43.690;27.956;2023-06-14T12:37:34;98602.66;;;26.72;55.38
18697;BME280;22617;43.690;27.956;2023-06-14T12:42:38;98594.19;;;27.24;52.73
18697;BME280;22617;43.690;27.956;2023-06-14T12:47:42;98591.19;;;27.62;51.90
18697;BME280;22617;43.690;27.956;2023-06-14T12:52:48;98585.72;;;28.06;54.37
18697;BME280;22617;43.690;27.956;2023-06-14T12:57:51;98571.13;;;28.10;51.58
18697;BME280;22617;43.690;27.956;2023-06-14T13:02:55;98570.69;;;28.37;50.16
18697;BME280;22617;43.690;27.956;2023-06-14T13:08:00;98575.97;;;27.62;50.78
18697;BME280;22617;43.690;27.956;2023-06-14T13:13:04;98571.94;;;28.22;50.47
18697;BME280;22617;43.690;27.956;2023-06-14T13:18:09;98554.66;;;28.47;50.19
18697;BME280;22617;43.690;27.956;2023-06-14T13:23:17;98563.22;;;28.93;49.97
18697;BME280;22617;43.690;27.956;2023-06-14T13:28:21;98563.66;;;28.98;48.28
18697;BME280;22617;43.690;27.956;2023-06-14T13:33:32;98563.66;;;29.40;51.43
18697;BME280;22617;43.690;27.956;2023-06-14T13:38:37;98562.59;;;28.69;49.51
18697;BME280;22617;43.690;27.956;2023-06-14T13:43:41;98566.16;;;27.95;49.97
18697;BME280;22617;43.690;27.956;2023-06-14T13:48:44;98567.88;;;27.07;52.13
18697;BME280;22617;43.690;27.956;2023-06-14T13:53:52;98575.09;;;26.82;58.10
18697;BME280;22617;43.690;27.956;2023-06-14T13:58:57;98569.88;;;26.81;60.44
18697;BME280;22617;43.690;27.956;2023-06-14T14:04:02;98567.25;;;26.57;58.19
18697;BME280;22617;43.690;27.956;2023-06-14T14:09:12;98573.84;;;25.93;60.27
18697;BME280;22617;43.690;27.956;2023-06-14T14:14:17;98565.63;;;25.59;60.98
18697;BME280;22617;43.690;27.956;2023-06-14T14:19:21;98560.78;;;25.52;61.15
18697;BME280;22617;43.690;27.956;2023-06-14T14:24:26;98565.94;;;25.42;61.79
18697;BME280;22617;43.690;27.956;2023-06-14T14:29:30;98556.56;;;25.24;62.52
18697;BME280;22617;43.690;27.956;2023-06-14T14:34:34;98549.66;;;24.96;63.81
18697;BME280;22617;43.690;27.956;2023-06-14T14:39:40;98554.97;;;24.84;64.27
18697;BME280;22617;43.690;27.956;2023-06-14T14:44:43;98550.03;;;24.77;64.25
18697;BME280;22617;43.690;27.956;2023-06-14T14:49:47;98537.88;;;24.86;62.91
18697;BME280;22617;43.690;27.956;2023-06-14T14:54:52;98537.16;;;24.84;63.25
18697;BME280;22617;43.690;27.956;2023-06-14T14:59:56;98540.34;;;24.64;63.72
18697;BME280;22617;43.690;27.956;2023-06-14T15:05:00;98540.75;;;24.70;63.36
18697;BME280;22617;43.690;27.956;2023-06-14T15:10:07;98535.00;;;24.76;62.42
18697;BME280;22617;43.690;27.956;2023-06-14T15:15:11;98541.91;;;24.54;63.69
18697;BME280;22617;43.690;27.956;2023-06-14T15:20:15;98550.66;;;24.56;62.82
18697;BME280;22617;43.690;27.956;2023-06-14T15:25:21;98540.34;;;24.64;62.61
18697;BME280;22617;43.690;27.956;2023-06-14T15:30:25;98536.19;;;24.72;62.37
18697;BME280;22617;43.690;27.956;2023-06-14T15:35:28;98537.50;;;24.92;62.43
18697;BME280;22617;43.690;27.956;2023-06-14T15:40:33;98542.94;;;25.03;62.69
18697;BME280;22617;43.690;27.956;2023-06-14T15:45:37;98546.22;;;24.82;62.78
18697;BME280;22617;43.690;27.956;2023-06-14T15:50:41;98547.25;;;24.54;63.66
18697;BME280;22617;43.690;27.956;2023-06-14T15:55:47;98553.19;;;24.45;64.05
18697;BME280;22617;43.690;27.956;2023-06-14T16:00:50;98553.38;;;24.42;64.33
18697;BME280;22617;43.690;27.956;2023-06-14T16:05:54;98563.00;;;24.44;66.35
18697;BME280;22617;43.690;27.956;2023-06-14T16:10:59;98560.63;;;24.13;68.05
18697;BME280;22617;43.690;27.956;2023-06-14T16:16:03;98570.47;;;23.98;69.22
18697;BME280;22617;43.690;27.956;2023-06-14T16:21:07;98570.53;;;23.84;70.20
18697;BME280;22617;43.690;27.956;2023-06-14T16:26:15;98575.97;;;23.82;70.55
18697;BME280;22617;43.690;27.956;2023-06-14T16:31:19;98565.06;;;23.73;69.97
18697;BME280;22617;43.690;27.956;2023-06-14T16:36:24;98583.50;;;23.62;70.41
18697;BME280;22617;43.690;27.956;2023-06-14T16:41:30;98588.47;;;23.54;71.04
18697;BME280;22617;43.690;27.956;2023-06-14T16:46:34;98580.66;;;23.22;71.35
18697;BME280;22617;43.690;27.956;2023-06-14T16:51:38;98593.56;;;23.28;71.91
18697;BME280;22617;43.690;27.956;2023-06-14T16:56:44;98592.63;;;23.29;72.27
18697;BME280;22617;43.690;27.956;2023-06-14T17:01:50;98607.25;;;23.22;73.55
18697;BME280;22617;43.690;27.956;2023-06-14T17:06:56;98610.81;;;22.93;75.36
18697;BME280;22617;43.690;27.956;2023-06-14T17:12:01;98617.06;;;22.78;76.27
18697;BME280;22617;43.690;27.956;2023-06-14T17:17:05;98621.06;;;22.69;76.71
18697;BME280;22617;43.690;27.956;2023-06-14T17:22:09;98620.22;;;22.69;76.96
18697;BME280;22617;43.690;27.956;2023-06-14T17:27:15;98629.13;;;22.53;77.15
18697;BME280;22617;43.690;27.956;2023-06-14T17:32:19;98647.41;;;22.28;78.32
18697;BME280;22617;43.690;27.956;2023-06-14T17:37:23;98648.59;;;22.07;79.35
18697;BME280;22617;43.690;27.956;2023-06-14T17:42:28;98651.63;;;22.01;79.62
18697;BME280;22617;43.690;27.956;2023-06-14T17:47:32;98646.19;;;21.87;80.36
18697;BME280;22617;43.690;27.956;2023-06-14T17:52:38;98651.25;;;21.91;80.16
18697;BME280;22617;43.690;27.956;2023-06-14T17:57:43;98651.06;;;21.79;81.29
18697;BME280;22617;43.690;27.956;2023-06-14T18:02:47;98663.59;;;21.59;81.96
18697;BME280;22617;43.690;27.956;2023-06-14T18:07:51;98672.06;;;21.50;82.81
18697;BME280;22617;43.690;27.956;2023-06-14T18:12:59;98680.06;;;21.33;83.71
18697;BME280;22617;43.690;27.956;2023-06-14T18:18:03;98685.13;;;21.20;84.54
18697;BME280;22617;43.690;27.956;2023-06-14T18:23:06;98691.91;;;21.26;84.54
18697;BME280;22617;43.690;27.956;2023-06-14T18:28:15;98692.22;;;21.20;84.66
18697;BME280;22617;43.690;27.956;2023-06-14T18:33:19;98704.38;;;21.07;85.69
18697;BME280;22617;43.690;27.956;2023-06-14T18:38:24;98718.16;;;20.79;86.68
18697;BME280;22617;43.690;27.956;2023-06-14T18:43:29;98720.81;;;20.79;87.36
18697;BME280;22617;43.690;27.956;2023-06-14T18:48:34;98719.09;;;20.78;87.27
18697;BME280;22617;43.690;27.956;2023-06-14T18:53:38;98726.16;;;20.60;87.44
18697;BME280;22617;43.690;27.956;2023-06-14T18:58:43;98738.94;;;20.69;86.84
18697;BME280;22617;43.690;27.956;2023-06-14T19:03:47;98750.47;;;20.68;87.02
18697;BME280;22617;43.690;27.956;2023-06-14T19:08:51;98762.50;;;20.75;86.86
18697;BME280;22617;43.690;27.956;2023-06-14T19:13:57;98765.88;;;20.60;87.03
18697;BME280;22617;43.690;27.956;2023-06-14T19:19:00;98763.09;;;20.44;88.24
18697;BME280;22617;43.690;27.956;2023-06-14T19:24:05;98761.97;;;20.50;88.07
18697;BME280;22617;43.690;27.956;2023-06-14T19:29:10;98766.28;;;20.53;87.71
18697;BME280;22617;43.690;27.956;2023-06-14T19:34:14;98762.75;;;20.52;87.84
18697;BME280;22617;43.690;27.956;2023-06-14T19:39:18;98763.19;;;20.43;87.40
18697;BME280;22617;43.690;27.956;2023-06-14T19:44:23;98771.22;;;20.41;88.08
18697;BME280;22617;43.690;27.956;2023-06-14T19:49:27;98785.06;;;20.28;88.82
18697;BME280;22617;43.690;27.956;2023-06-14T19:54:30;98768.53;;;20.23;88.74
18697;BME280;22617;43.690;27.956;2023-06-14T19:59:36;98759.78;;;20.21;89.92
18697;BME280;22617;43.690;27.956;2023-06-14T20:04:40;98758.81;;;20.23;89.84
18697;BME280;22617;43.690;27.956;2023-06-14T20:09:44;98756.38;;;20.19;89.88
18697;BME280;22617;43.690;27.956;2023-06-14T20:14:49;98756.06;;;20.25;89.28
18697;BME280;22617;43.690;27.956;2023-06-14T20:19:53;98748.78;;;20.11;88.96
18697;BME280;22617;43.690;27.956;2023-06-14T20:24:57;98750.06;;;20.02;88.57
18697;BME280;22617;43.690;27.956;2023-06-14T20:30:03;98767.53;;;20.07;88.84
18697;BME280;22617;43.690;27.956;2023-06-14T20:35:08;98758.72;;;20.06;88.41
18697;BME280;22617;43.690;27.956;2023-06-14T20:40:19;98752.94;;;19.98;88.02
18697;BME280;22617;43.690;27.956;2023-06-14T20:45:24;98762.81;;;19.94;87.45
18697;BME280;22617;43.690;27.956;2023-06-14T20:50:28;98765.50;;;19.93;88.42
18697;BME280;22617;43.690;27.956;2023-06-14T20:55:32;98764.78;;;19.89;87.81
18697;BME280;22617;43.690;27.956;2023-06-14T21:00:37;98762.78;;;19.76;87.73
18697;BME280;22617;43.690;27.956;2023-06-14T21:11:58;98766.41;;;19.73;87.62
18697;BME280;22617;43.690;27.956;2023-06-14T21:17:04;98761.38;;;19.67;87.87
18697;BME280;22617;43.690;27.956;2023-06-14T21:22:08;98761.25;;;19.70;88.15
18697;BME280;22617;43.690;27.956;2023-06-14T21:27:13;98752.72;;;19.64;87.40
18697;BME280;22617;43.690;27.956;2023-06-14T21:32:18;98749.78;;;19.51;87.64
18697;BME280;22617;43.690;27.956;2023-06-14T21:37:22;98749.22;;;19.43;88.13
18697;BME280;22617;43.690;27.956;2023-06-14T21:42:25;98755.03;;;19.31;87.93
18697;BME280;22617;43.690;27.956;2023-06-14T21:47:30;98754.03;;;19.33;87.64
18697;BME280;22617;43.690;27.956;2023-06-14T21:52:34;98753.06;;;19.36;86.82
18697;BME280;22617;43.690;27.956;2023-06-14T21:57:38;98748.75;;;19.33;86.41
18697;BME280;22617;43.690;27.956;2023-06-14T22:02:43;98747.50;;;19.01;87.96
18697;BME280;22617;43.690;27.956;2023-06-14T22:07:47;98744.44;;;18.90;89.42
18697;BME280;22617;43.690;27.956;2023-06-14T22:12:52;98735.13;;;18.82;90.88
18697;BME280;22617;43.690;27.956;2023-06-14T22:17:58;98737.38;;;18.91;91.27
18697;BME280;22617;43.690;27.956;2023-06-14T22:23:02;98740.09;;;18.89;91.07
18697;BME280;22617;43.690;27.956;2023-06-14T22:28:06;98734.16;;;18.84;90.11
18697;BME280;22617;43.690;27.956;2023-06-14T22:33:12;98728.50;;;18.71;89.19
18697;BME280;22617;43.690;27.956;2023-06-14T22:38:19;98732.13;;;18.69;90.28
18697;BME280;22617;43.690;27.956;2023-06-14T22:43:23;98728.13;;;18.81;90.05
18697;BME280;22617;43.690;27.956;2023-06-14T22:48:28;98723.31;;;18.90;89.45
18697;BME280;22617;43.690;27.956;2023-06-14T22:53:32;98725.03;;;18.91;89.31
18697;BME280;22617;43.690;27.956;2023-06-14T22:58:36;98726.78;;;18.70;88.32
18697;BME280;22617;43.690;27.956;2023-06-14T23:03:44;98718.03;;;18.70;88.58
18697;BME280;22617;43.690;27.956;2023-06-14T23:08:48;98717.69;;;18.78;89.26
18697;BME280;22617;43.690;27.956;2023-06-14T23:13:52;98718.50;;;18.80;89.00
18697;BME280;22617;43.690;27.956;2023-06-14T23:18:58;98714.63;;;18.66;88.33
18697;BME280;22617;43.690;27.956;2023-06-14T23:24:02;98708.84;;;18.57;89.02
18697;BME280;22617;43.690;27.956;2023-06-14T23:29:06;98710.53;;;18.59;89.29
18697;BME280;22617;43.690;27.956;2023-06-14T23:34:11;98704.75;;;18.50;87.80
18697;BME280;22617;43.690;27.956;2023-06-14T23:39:15;98705.31;;;18.58;87.83
18697;BME280;22617;43.690;27.956;2023-06-14T23:44:21;98697.34;;;18.59;87.24
18697;BME280;22617;43.690;27.956;2023-06-14T23:49:28;98702.91;;;18.30;87.04
18697;BME280;22617;43.690;27.956;2023-06-14T23:54:32;98702.56;;;18.38;87.49
18697;BME280;22617;43.690;27.956;2023-06-14T23:59:36;98697.53;;;18.55;87.29
